Time;durP1;ratioP1;P1;durP2;ratioP2;P2;SDS_P1;SDS_P2;PMS_P1;PMS_P2;Temp;Humidity;BMP_temperature;BMP_pressure;BME280_temperature;BME280_humidity;BME280_pressure;Samples;Min_cycle;Max_cycle;Signal;HPM_P1;HPM_P2
2023/03/27 00:01:03;;;;;;;53.90;21.92;;;;;;;9.45;39.23;92845.69;5005004;28;20128;-73
2023/03/27 00:03:29;;;;;;;36.00;16.80;;;;;;;9.54;39.54;92847.47;5009622;28;20021;-72
2023/03/27 00:06:03;;;;;;;30.23;14.63;;;;;;;9.57;39.73;92847.63;5003563;28;20137;-73
2023/03/27 00:08:30;;;;;;;22.13;12.52;;;;;;;9.55;39.38;92838.41;5013483;28;20093;-74
2023/03/27 00:10:56;;;;;;;25.38;12.18;;;;;;;9.50;39.89;92841.28;5003312;28;20238;-73
2023/03/27 00:13:22;;;;;;;13.23;9.13;;;;;;;9.53;39.54;92830.03;5005437;28;20069;-72
2023/03/27 00:15:49;;;;;;;14.63;8.45;;;;;;;9.53;38.65;92832.69;5005131;28;20116;-72
2023/03/27 00:18:15;;;;;;;12.43;8.55;;;;;;;9.51;39.25;92835.66;5004406;28;20049;-72
2023/03/27 00:20:41;;;;;;;13.93;8.55;;;;;;;9.32;39.67;92824.78;5004798;28;20492;-73
2023/03/27 00:23:07;;;;;;;17.00;9.75;;;;;;;9.45;39.59;92819.16;5003523;28;20072;-72
2023/03/27 00:25:32;;;;;;;13.43;8.30;;;;;;;9.29;38.86;92775.78;5006326;28;20125;-73
2023/03/27 00:27:58;;;;;;;12.68;9.27;;;;;;;9.43;40.10;92821.38;5003183;28;20061;-73
2023/03/27 00:30:25;;;;;;;14.35;8.40;;;;;;;9.30;39.46;92826.97;5004163;28;20563;-72
2023/03/27 00:32:54;;;;;;;20.55;8.38;;;;;;;8.94;40.50;92801.88;5002670;28;20049;-72
2023/03/27 00:35:20;;;;;;;12.75;8.20;;;;;;;8.93;40.64;92802.97;5004191;28;20030;-74
2023/03/27 00:37:46;;;;;;;11.95;7.78;;;;;;;9.17;40.11;92834.13;5004220;28;20038;-72
2023/03/27 00:40:17;;;;;;;8.23;5.78;;;;;;;9.22;40.02;92822.53;5004624;28;20640;-73
2023/03/27 00:42:45;;;;;;;11.13;5.97;;;;;;;9.14;39.90;92810.94;5006132;28;20129;-74
2023/03/27 00:45:15;;;;;;;10.73;6.38;;;;;;;9.15;40.10;92807.16;5001816;28;20038;-73
2023/03/27 00:47:40;;;;;;;11.77;6.07;;;;;;;9.25;40.12;92800.66;5004964;28;20128;-74
2023/03/27 00:50:09;;;;;;;34.00;11.60;;;;;;;9.17;39.98;92781.09;5011521;28;20115;-74
2023/03/27 00:52:40;;;;;;;39.17;11.98;;;;;;;9.28;39.83;92776.13;5005562;28;20041;-72
2023/03/27 00:55:13;;;;;;;28.83;8.35;;;;;;;9.17;40.36;92778.44;5004588;28;20022;-72
2023/03/27 00:57:40;;;;;;;22.02;10.07;;;;;;;9.25;40.26;92785.50;5007869;28;20515;-74
2023/03/27 01:00:11;;;;;;;16.13;6.47;;;;;;;9.25;39.83;92766.16;5006344;28;20041;-73
2023/03/27 01:02:39;;;;;;;15.02;5.85;;;;;;;9.36;39.71;92776.03;5002895;28;20034;-73
2023/03/27 01:05:06;;;;;;;9.65;5.00;;;;;;;9.41;39.79;92791.75;5000548;28;20046;-73
2023/03/27 01:07:32;;;;;;;8.85;4.97;;;;;;;9.38;39.09;92768.53;4987175;28;20039;-73
2023/03/27 01:09:57;;;;;;;13.38;6.28;;;;;;;9.52;38.56;92786.78;4986863;28;20057;-73
2023/03/27 01:12:37;;;;;;;10.32;6.47;;;;;;;9.45;39.82;92779.34;4982119;28;20336;-73
2023/03/27 01:15:15;;;;;;;14.43;7.28;;;;;;;9.33;40.06;92763.44;5002613;28;20038;-74
2023/03/27 01:18:08;;;;;;;17.05;7.55;;;;;;;9.31;40.39;92765.63;5006436;28;20107;-73
2023/03/27 01:21:12;;;;;;;16.63;7.03;;;;;;;9.32;38.93;92761.09;5005357;28;20026;-74
2023/03/27 01:23:41;;;;;;;14.35;7.03;;;;;;;9.30;39.72;92769.38;5004790;28;20450;-73
2023/03/27 01:26:15;;;;;;;19.98;8.95;;;;;;;9.29;39.94;92751.16;5007657;28;20026;-75
2023/03/27 01:29:11;;;;;;;12.20;6.88;;;;;;;9.36;39.58;92740.75;5003697;28;20029;-74
2023/03/27 01:31:52;;;;;;;14.18;8.23;;;;;;;9.23;39.93;92750.59;5004356;28;20485;-74
2023/03/27 01:34:45;;;;;;;19.10;7.97;;;;;;;9.22;40.33;92758.88;5009085;28;20076;-73
2023/03/27 01:37:20;;;;;;;13.50;6.38;;;;;;;9.11;41.12;92755.88;5008170;28;20025;-73
2023/03/27 01:40:03;;;;;;;10.93;6.00;;;;;;;9.00;40.10;92742.22;5006202;28;20071;-73
2023/03/27 01:42:38;;;;;;;9.10;6.32;;;;;;;8.92;41.48;92747.63;5002241;28;20053;-72
2023/03/27 01:45:24;;;;;;;11.77;7.60;;;;;;;9.03;41.01;92738.16;5005910;28;20452;-72
2023/03/27 01:48:11;;;;;;;12.07;6.63;;;;;;;8.95;40.15;92709.84;5006265;28;20042;-73
2023/03/27 01:51:00;;;;;;;15.13;8.23;;;;;;;8.83;40.96;92725.72;5007766;28;20455;-74
2023/03/27 01:53:35;;;;;;;10.13;5.85;;;;;;;9.03;40.79;92727.53;5006713;28;20392;-74
2023/03/27 01:56:25;;;;;;;18.27;9.32;;;;;;;8.94;40.31;92729.50;5003984;28;20977;-73
2023/03/27 01:58:55;;;;;;;23.27;11.90;;;;;;;9.00;40.71;92733.47;5007890;28;20045;-73
2023/03/27 02:01:27;;;;;;;15.55;9.25;;;;;;;8.99;40.71;92726.66;5008118;28;20107;-74
2023/03/27 02:03:56;;;;;;;14.30;8.48;;;;;;;8.78;40.66;92704.72;5009535;28;20029;-73
2023/03/27 02:06:40;;;;;;;13.88;8.98;;;;;;;8.61;40.88;92678.41;5003435;28;20064;-74
2023/03/27 02:09:19;;;;;;;7.93;4.97;;;;;;;9.00;39.93;92717.56;5007061;28;20634;-72
2023/03/27 02:11:57;;;;;;;7.30;4.95;;;;;;;9.00;40.44;92714.91;5005590;28;20535;-74
2023/03/27 02:14:28;;;;;;;9.52;5.28;;;;;;;9.06;40.25;92710.97;5007022;28;20507;-72
2023/03/27 02:17:02;;;;;;;7.97;5.13;;;;;;;8.99;40.55;92710.75;5008621;28;20034;-72
2023/03/27 02:19:39;;;;;;;8.43;5.50;;;;;;;9.05;40.19;92711.31;5009738;28;20364;-75
2023/03/27 02:22:05;;;;;;;11.35;5.97;;;;;;;8.93;40.11;92696.91;5007856;28;20270;-73
2023/03/27 02:24:30;;;;;;;9.05;5.93;;;;;;;8.87;40.79;92703.53;5015556;28;20076;-74
2023/03/27 02:27:05;;;;;;;6.55;4.80;;;;;;;8.77;40.18;92688.03;5008258;28;20033;-73
2023/03/27 02:29:39;;;;;;;9.82;5.00;;;;;;;8.00;40.37;92574.91;5006563;28;20530;-73
2023/03/27 02:32:31;;;;;;;6.55;4.68;;;;;;;8.72;40.72;92675.00;5008318;28;20038;-73
2023/03/27 02:35:16;;;;;;;7.72;4.25;;;;;;;8.69;40.40;92678.31;5005759;28;20555;-73
2023/03/27 02:38:16;;;;;;;7.35;4.60;;;;;;;8.62;41.14;92653.44;5009186;28;20041;-73
2023/03/27 02:40:57;;;;;;;6.57;4.25;;;;;;;8.55;40.54;92654.75;5007739;28;20045;-73
2023/03/27 02:43:26;;;;;;;9.50;5.05;;;;;;;8.56;40.83;92653.63;5005802;28;20042;-73
2023/03/27 02:45:55;;;;;;;7.75;4.45;;;;;;;8.66;40.68;92644.50;5007678;28;20030;-74
2023/03/27 02:48:39;;;;;;;11.07;5.82;;;;;;;8.33;40.65;92599.50;5005887;28;20611;-73
2023/03/27 02:51:04;;;;;;;5.75;4.18;;;;;;;8.45;40.97;92641.94;5010300;28;20124;-73
2023/03/27 02:53:35;;;;;;;7.45;4.25;;;;;;;8.38;40.53;92617.06;5009466;28;20392;-72
2023/03/27 02:56:03;;;;;;;8.80;4.47;;;;;;;8.37;40.32;92603.03;5007029;28;20029;-75
2023/03/27 02:58:51;;;;;;;7.88;5.20;;;;;;;8.54;40.25;92631.22;5008184;28;20042;-72
2023/03/27 03:01:19;;;;;;;7.45;5.07;;;;;;;8.34;40.68;92616.94;5008259;28;20025;-73
2023/03/27 03:03:56;;;;;;;6.75;4.75;;;;;;;8.36;40.45;92617.41;5006666;28;20017;-73
2023/03/27 03:06:28;;;;;;;5.82;4.53;;;;;;;8.01;41.32;92616.97;5014593;28;20500;-74
2023/03/27 03:09:04;;;;;;;18.70;10.43;;;;;;;8.02;41.25;92599.19;5005707;28;20103;-73
2023/03/27 03:11:32;;;;;;;15.70;8.55;;;;;;;8.00;41.22;92601.38;5010989;28;20036;-74
2023/03/27 03:13:57;;;;;;;8.73;5.22;;;;;;;8.14;41.23;92584.13;5004429;28;20038;-74
2023/03/27 03:16:23;;;;;;;8.00;3.90;;;;;;;8.13;41.53;92587.84;5008790;28;20041;-73
2023/03/27 03:18:49;;;;;;;5.25;3.85;;;;;;;8.11;41.71;92576.84;5003275;28;20543;-72
2023/03/27 03:21:15;;;;;;;5.53;4.10;;;;;;;8.14;40.55;92570.09;5005655;28;20404;-74
2023/03/27 03:23:40;;;;;;;6.28;4.15;;;;;;;8.22;40.61;92577.16;5008048;28;20062;-73
2023/03/27 03:26:06;;;;;;;13.30;8.15;;;;;;;8.31;40.93;92591.13;5007618;28;20119;-74
2023/03/27 03:28:33;;;;;;;7.85;3.72;;;;;;;8.37;40.24;92589.78;5013963;28;20036;-74
2023/03/27 03:31:01;;;;;;;6.13;3.78;;;;;;;8.02;40.68;92580.66;5007669;28;20033;-73
2023/03/27 03:33:28;;;;;;;4.00;3.55;;;;;;;8.24;41.08;92582.94;5010333;28;20046;-73
2023/03/27 03:35:57;;;;;;;5.68;3.78;;;;;;;8.39;41.06;92577.00;5005589;28;20303;-73
2023/03/27 03:38:26;;;;;;;7.82;4.13;;;;;;;8.32;40.79;92576.75;5005931;28;20568;-72
2023/03/27 03:40:55;;;;;;;7.18;4.03;;;;;;;8.27;41.06;92558.41;5007663;28;20034;-74
2023/03/27 03:43:23;;;;;;;6.15;4.28;;;;;;;8.35;41.06;92578.75;5002130;28;20840;-74
2023/03/27 03:45:49;;;;;;;6.25;4.13;;;;;;;8.41;40.46;92569.47;5008837;28;20033;-74
2023/03/27 03:48:15;;;;;;;7.10;3.70;;;;;;;8.44;40.81;92574.13;5003335;28;20829;-72
2023/03/27 03:50:42;;;;;;;6.97;4.20;;;;;;;8.15;41.82;92559.19;5005955;28;20041;-73
2023/03/27 03:53:07;;;;;;;7.10;4.60;;;;;;;8.33;41.35;92567.72;5007521;28;20034;-73
2023/03/27 03:55:33;;;;;;;6.10;4.10;;;;;;;8.34;41.29;92569.25;5004662;28;20045;-73
2023/03/27 03:57:58;;;;;;;6.50;4.18;;;;;;;8.16;41.60;92578.50;5007340;28;20031;-73
2023/03/27 04:00:24;;;;;;;6.70;4.43;;;;;;;8.12;41.85;92567.00;5006698;28;20562;-74
2023/03/27 04:02:54;;;;;;;8.57;4.90;;;;;;;8.03;40.72;92576.91;5006849;28;20112;-73
2023/03/27 04:05:20;;;;;;;7.57;4.30;;;;;;;7.94;41.31;92544.44;5006099;28;20095;-74
2023/03/27 04:07:46;;;;;;;6.38;4.15;;;;;;;8.03;41.58;92574.25;5013591;28;20033;-72
2023/03/27 04:10:13;;;;;;;8.00;4.10;;;;;;;8.05;41.10;92578.13;5005568;28;20080;-72
2023/03/27 04:12:39;;;;;;;7.10;4.43;;;;;;;8.02;40.56;92557.59;5008772;28;20529;-74
2023/03/27 04:15:06;;;;;;;6.50;3.85;;;;;;;8.06;41.58;92573.63;4999051;28;20034;-73
2023/03/27 04:17:32;;;;;;;5.68;3.95;;;;;;;7.86;40.76;92527.56;4986716;28;20124;-74
2023/03/27 04:19:58;;;;;;;7.10;5.10;;;;;;;7.98;41.06;92550.63;4984390;28;20512;-73
2023/03/27 04:22:25;;;;;;;5.45;3.85;;;;;;;7.98;41.08;92551.41;4988692;28;20554;-74
2023/03/27 04:24:52;;;;;;;7.65;4.75;;;;;;;8.22;40.72;92553.34;4986588;28;20026;-72
2023/03/27 04:27:19;;;;;;;6.05;3.75;;;;;;;8.19;41.55;92567.25;4988831;28;20064;-72
2023/03/27 04:29:46;;;;;;;6.00;4.22;;;;;;;8.26;41.05;92553.47;4983387;28;20132;-73
2023/03/27 04:32:12;;;;;;;5.85;4.07;;;;;;;8.36;41.68;92564.44;4986035;28;20336;-74
2023/03/27 04:34:39;;;;;;;5.05;3.50;;;;;;;8.16;41.39;92541.44;4988039;28;20056;-74
2023/03/27 04:37:05;;;;;;;5.85;4.15;;;;;;;8.28;42.77;92554.69;4985848;28;20026;-72
2023/03/27 04:39:34;;;;;;;7.18;4.03;;;;;;;8.45;42.00;92559.78;4986746;28;20033;-74
2023/03/27 04:42:01;;;;;;;5.55;4.22;;;;;;;8.47;41.76;92557.56;4987092;28;20622;-74
2023/03/27 04:44:27;;;;;;;6.70;4.15;;;;;;;8.51;42.34;92547.13;4986386;28;20037;-73
2023/03/27 04:46:52;;;;;;;8.05;3.78;;;;;;;8.52;41.02;92536.16;4980908;28;20035;-72
2023/03/27 04:49:19;;;;;;;5.55;4.20;;;;;;;8.68;40.57;92546.88;4988109;28;20033;-73
2023/03/27 04:51:45;;;;;;;9.63;4.40;;;;;;;8.74;40.58;92540.28;4987432;28;20659;-73
2023/03/27 04:54:10;;;;;;;5.95;4.30;;;;;;;8.72;41.00;92539.03;4988918;28;20044;-72
2023/03/27 04:56:36;;;;;;;7.22;4.18;;;;;;;7.71;41.67;92526.28;4997985;28;20519;-73
2023/03/27 04:59:04;;;;;;;14.18;4.60;;;;;;;8.28;42.26;92533.50;5005591;28;20079;-74
2023/03/27 05:01:30;;;;;;;15.98;6.80;;;;;;;8.31;41.51;92529.41;5004091;28;20068;-74
2023/03/27 05:03:55;;;;;;;11.85;6.95;;;;;;;8.47;40.59;92511.75;5012591;28;20105;-73
2023/03/27 05:06:22;;;;;;;10.10;6.15;;;;;;;8.37;41.75;92512.19;5004601;28;20473;-74
2023/03/27 05:08:48;;;;;;;12.35;6.18;;;;;;;8.68;40.88;92511.66;5005412;28;20084;-73
2023/03/27 05:11:13;;;;;;;14.23;6.50;;;;;;;8.66;41.77;92519.94;5007028;28;20436;-73
2023/03/27 05:13:39;;;;;;;13.65;5.38;;;;;;;8.07;42.45;92507.06;5003929;28;20671;-73
2023/03/27 05:16:05;;;;;;;13.57;6.10;;;;;;;8.26;42.91;92513.75;5005628;28;20117;-73
2023/03/27 05:18:30;;;;;;;12.85;6.10;;;;;;;8.71;41.25;92497.72;5003604;28;20509;-73
2023/03/27 05:20:57;;;;;;;16.83;7.22;;;;;;;8.97;41.58;92500.81;5005347;28;20040;-73
2023/03/27 05:23:23;;;;;;;19.75;6.47;;;;;;;8.43;42.01;92471.91;5005148;28;20024;-72
2023/03/27 05:25:49;;;;;;;16.35;8.38;;;;;;;8.31;42.17;92489.69;5007151;28;20035;-73
2023/03/27 05:28:14;;;;;;;13.02;6.40;;;;;;;8.51;41.68;92472.91;5002291;28;20088;-73
2023/03/27 05:30:41;;;;;;;13.63;6.60;;;;;;;8.83;41.11;92453.44;5008926;28;20033;-74
2023/03/27 05:33:06;;;;;;;10.20;6.55;;;;;;;8.06;42.89;92457.13;5009359;28;21012;-72
2023/03/27 05:35:33;;;;;;;11.45;6.32;;;;;;;8.61;42.08;92455.81;5007648;28;20048;-72
2023/03/27 05:37:59;;;;;;;16.90;6.78;;;;;;;7.82;43.02;92433.25;5010826;28;20038;-74
2023/03/27 05:40:27;;;;;;;17.52;6.60;;;;;;;8.16;42.64;92409.03;5007682;28;20037;-73
2023/03/27 05:42:54;;;;;;;13.75;6.93;;;;;;;8.31;42.99;92386.41;5009913;28;20052;-72
2023/03/27 05:45:21;;;;;;;16.38;7.90;;;;;;;8.18;42.26;92359.13;5005955;28;20045;-73
2023/03/27 05:47:51;;;;;;;14.70;7.38;;;;;;;7.04;44.22;92357.34;5008441;28;20038;-73
2023/03/27 05:50:19;;;;;;;12.60;5.60;;;;;;;7.43;44.31;92312.91;5010062;28;20177;-73
2023/03/27 05:52:45;;;;;;;9.57;4.25;;;;;;;7.67;43.08;92292.53;5005906;28;20037;-73
2023/03/27 05:55:11;;;;;;;9.65;4.95;;;;;;;7.88;42.88;92287.13;5008845;28;20052;-73
2023/03/27 05:57:38;;;;;;;3.78;2.38;;;;;;;8.33;40.66;92276.34;5006886;28;20480;-74
2023/03/27 06:00:10;;;;;;;4.78;1.70;;;;;;;8.37;39.82;92274.56;5009244;28;20061;-73
2023/03/27 06:02:37;;;;;;;8.60;2.08;;;;;;;8.39;39.60;92266.28;5006924;28;20065;-73
2023/03/27 06:05:04;;;;;;;7.55;2.47;;;;;;;8.03;40.32;92261.84;5011029;28;20045;-73
2023/03/27 06:07:29;;;;;;;4.63;2.00;;;;;;;8.51;40.07;92282.91;5006053;28;20034;-73
2023/03/27 06:09:55;;;;;;;8.02;2.28;;;;;;;8.64;39.66;92248.41;5010996;28;20033;-72
2023/03/27 06:12:22;;;;;;;3.17;2.17;;;;;;;8.51;39.66;92245.06;5010373;28;20294;-74
2023/03/27 06:14:48;;;;;;;7.25;2.70;;;;;;;8.50;39.55;92224.97;5010727;28;20424;-73
2023/03/27 06:17:14;;;;;;;6.03;2.55;;;;;;;8.71;38.77;92240.66;5007270;28;20041;-72
2023/03/27 06:19:40;;;;;;;6.60;2.88;;;;;;;8.46;40.18;92232.06;5009168;28;20048;-74
2023/03/27 06:22:06;;;;;;;8.80;2.95;;;;;;;8.61;39.59;92227.91;5007366;28;20017;-73
2023/03/27 06:24:32;;;;;;;7.43;3.72;;;;;;;8.55;41.22;92244.06;5007423;28;20072;-74
2023/03/27 06:26:57;;;;;;;9.60;2.65;;;;;;;8.03;41.28;92193.00;5007691;28;20218;-73
2023/03/27 06:29:26;;;;;;;12.48;3.47;;;;;;;8.41;41.24;92238.34;5008287;28;20451;-72
2023/03/27 06:31:52;;;;;;;11.43;4.35;;;;;;;8.53;40.32;92217.13;5008127;28;20041;-74
2023/03/27 06:34:17;;;;;;;7.53;4.32;;;;;;;9.39;39.97;92300.41;5009738;28;20435;-75
2023/03/27 06:36:43;;;;;;;10.35;4.30;;;;;;;9.58;38.82;92317.56;5005942;28;20160;-73
2023/03/27 06:39:09;;;;;;;14.07;5.35;;;;;;;9.90;38.13;92332.34;5009299;28;20438;-73
2023/03/27 06:41:35;;;;;;;13.90;5.88;;;;;;;9.10;39.30;92297.34;5007507;28;20030;-72
2023/03/27 06:44:00;;;;;;;8.85;5.22;;;;;;;9.75;39.03;92317.97;5007896;28;20065;-73
2023/03/27 06:46:26;;;;;;;16.98;6.78;;;;;;;10.13;37.79;92317.31;5004319;28;20029;-73
2023/03/27 06:48:52;;;;;;;26.05;11.00;;;;;;;10.13;37.62;92285.44;5010093;28;20021;-72
2023/03/27 06:51:21;;;;;;;22.48;10.07;;;;;;;10.40;38.73;92312.25;5007107;28;20038;-73
2023/03/27 06:53:48;;;;;;;17.45;11.82;;;;;;;10.48;37.80;92312.03;5003681;28;20069;-73
2023/03/27 06:56:13;;;;;;;25.88;13.10;;;;;;;10.58;37.20;92316.03;5008722;28;20037;-73
2023/03/27 06:58:39;;;;;;;19.92;11.05;;;;;;;10.57;37.81;92320.59;5007970;28;20038;-74
2023/03/27 07:01:04;;;;;;;17.63;11.15;;;;;;;10.54;37.12;92315.19;5007152;28;20502;-72
2023/03/27 07:03:30;;;;;;;21.55;11.65;;;;;;;10.48;37.29;92297.97;5007210;28;20045;-71
2023/03/27 07:05:55;;;;;;;19.08;11.23;;;;;;;10.77;37.70;92329.34;5007780;28;20686;-73
2023/03/27 07:08:21;;;;;;;16.52;9.63;;;;;;;10.84;36.65;92308.22;5005072;28;20045;-73
2023/03/27 07:10:47;;;;;;;19.75;9.88;;;;;;;10.84;37.04;92305.56;5000053;28;20045;-75
2023/03/27 07:13:12;;;;;;;18.35;9.43;;;;;;;10.95;37.21;92325.16;5007834;28;20032;-73
2023/03/27 07:15:38;;;;;;;12.45;7.15;;;;;;;11.01;37.16;92323.75;5006257;28;20024;-74
2023/03/27 07:18:05;;;;;;;16.10;6.95;;;;;;;11.23;36.35;92302.88;5007042;28;20037;-74
2023/03/27 07:20:32;;;;;;;13.70;7.05;;;;;;;11.46;37.59;92306.31;5003971;28;20034;-73
2023/03/27 07:22:59;;;;;;;16.80;7.68;;;;;;;11.58;36.67;92308.84;5007726;28;20488;-73
2023/03/27 07:25:36;;;;;;;15.48;6.25;;;;;;;11.71;35.75;92291.56;5006015;28;20054;-73
2023/03/27 07:28:08;;;;;;;18.13;8.30;;;;;;;11.64;36.87;92318.06;5005346;28;20154;-74
2023/03/27 07:30:34;;;;;;;13.05;7.07;;;;;;;11.89;36.29;92324.56;5006583;28;20025;-74
2023/03/27 07:33:00;;;;;;;16.67;6.90;;;;;;;11.79;35.11;92303.84;5005895;28;20141;-73
2023/03/27 07:35:25;;;;;;;14.35;6.35;;;;;;;11.92;35.38;92325.75;5005917;28;20481;-73
2023/03/27 07:37:55;;;;;;;10.00;6.28;;;;;;;12.13;36.06;92319.97;5008109;28;20131;-74
2023/03/27 07:40:21;;;;;;;12.57;6.35;;;;;;;12.11;35.35;92304.38;5003758;28;22283;-74
2023/03/27 07:42:48;;;;;;;18.05;7.03;;;;;;;12.32;34.70;92298.56;5009456;28;20060;-73
2023/03/27 07:45:15;;;;;;;17.40;6.65;;;;;;;12.04;34.62;92278.38;5006630;28;20170;-74
2023/03/27 07:47:42;;;;;;;14.27;6.07;;;;;;;12.37;35.59;92309.66;5005851;28;20041;-73
2023/03/27 07:50:10;;;;;;;8.20;4.78;;;;;;;12.36;35.00;92305.50;5003817;28;20037;-72
2023/03/27 07:52:36;;;;;;;13.90;5.95;;;;;;;12.36;34.91;92315.38;5005857;28;20191;-73
2023/03/27 07:55:03;;;;;;;11.00;5.68;;;;;;;12.04;36.67;92321.00;5006749;28;20030;-74
2023/03/27 07:57:28;;;;;;;9.60;5.10;;;;;;;12.25;35.50;92301.13;5006022;28;20088;-73
2023/03/27 07:59:56;;;;;;;11.32;4.78;;;;;;;12.17;35.49;92286.19;5004662;28;20045;-73
2023/03/27 08:02:23;;;;;;;11.20;5.25;;;;;;;12.33;35.30;92286.75;4991653;28;20606;-73
2023/03/27 08:04:50;;;;;;;10.65;5.15;;;;;;;11.24;37.07;92278.56;5001088;28;20512;-74
2023/03/27 08:07:16;;;;;;;9.63;4.65;;;;;;;11.40;36.94;92295.19;5001943;28;20037;-73
2023/03/27 08:09:42;;;;;;;11.07;5.07;;;;;;;11.71;36.32;92274.81;5006825;28;20092;-73
2023/03/27 08:12:07;;;;;;;9.82;5.07;;;;;;;12.29;35.79;92280.63;5003683;28;20459;-73
2023/03/27 08:14:32;;;;;;;9.32;5.20;;;;;;;12.48;35.65;92272.50;5005290;28;20125;-73
2023/03/27 08:16:58;;;;;;;11.60;6.18;;;;;;;12.71;34.80;92277.78;4995882;28;20779;-75
2023/03/27 08:19:24;;;;;;;11.35;6.00;;;;;;;12.19;35.76;92255.34;4997490;28;20068;-74
2023/03/27 08:21:49;;;;;;;9.90;5.10;;;;;;;12.30;35.58;92256.28;5001077;28;20048;-74
2023/03/27 08:24:15;;;;;;;21.35;6.05;;;;;;;12.54;35.62;92256.94;5005893;28;20038;-73
2023/03/27 08:26:41;;;;;;;15.57;6.13;;;;;;;12.44;35.30;92247.69;5003984;28;20041;-74
2023/03/27 08:29:07;;;;;;;11.35;5.65;;;;;;;12.54;36.43;92239.06;5007969;28;20041;-73
2023/03/27 08:31:34;;;;;;;10.75;5.15;;;;;;;12.21;36.67;92244.34;5006170;28;20058;-73
2023/03/27 08:34:00;;;;;;;13.75;5.78;;;;;;;12.23;35.91;92240.19;5008800;28;20025;-73
2023/03/27 08:36:26;;;;;;;10.98;5.82;;;;;;;12.47;37.51;92230.97;4998706;28;20124;-75
2023/03/27 08:38:53;;;;;;;12.15;4.80;;;;;;;12.47;35.93;92217.63;5006964;28;20127;-74
2023/03/27 08:41:50;;;;;;;11.27;5.55;;;;;;;12.34;36.95;92253.66;5007932;28;20495;-73
2023/03/27 08:44:18;;;;;;;8.73;4.75;;;;;;;12.69;36.67;92280.03;5007021;28;20504;-73
2023/03/27 08:46:48;;;;;;;7.20;4.35;;;;;;;12.84;36.16;92287.06;5005285;28;20128;-74
2023/03/27 08:49:19;;;;;;;6.55;3.80;;;;;;;12.22;38.58;92283.19;5004994;28;20101;-73
2023/03/27 08:51:47;;;;;;;13.30;3.55;;;;;;;11.91;41.91;92247.75;5005789;28;20044;-73
2023/03/27 08:54:17;;;;;;;7.13;2.80;;;;;;;12.38;40.03;92219.81;5006503;28;20029;-73
2023/03/27 08:56:44;;;;;;;5.70;2.40;;;;;;;12.42;37.47;92169.97;5021141;28;20038;-73
2023/03/27 08:59:15;;;;;;;4.47;2.03;;;;;;;12.83;41.11;92178.84;5005845;28;20046;-74
2023/03/27 09:02:03;;;;;;;5.05;2.22;;;;;;;12.85;43.49;92190.69;5007866;28;20049;-73
2023/03/27 09:04:53;;;;;;;4.63;1.92;;;;;;;12.74;40.62;92139.13;5010399;28;20080;-74
2023/03/27 09:07:46;;;;;;;4.15;2.17;;;;;;;12.66;39.95;92132.19;5009130;28;20061;-73
2023/03/27 09:10:47;;;;;;;3.83;2.08;;;;;;;13.03;37.98;92161.50;5012023;28;20037;-72
2023/03/27 09:13:22;;;;;;;3.90;1.88;;;;;;;12.82;35.86;92127.38;5008489;28;20118;-75
2023/03/27 09:15:54;;;;;;;4.03;2.20;;;;;;;12.87;35.53;92142.28;5014083;28;20022;-73
2023/03/27 09:18:32;;;;;;;5.15;3.35;;;;;;;13.01;36.64;92147.75;5009904;28;20079;-74
2023/03/27 09:21:20;;;;;;;2.33;2.08;;;;;;;12.88;38.17;92178.50;5028749;28;20509;-74
2023/03/27 09:23:46;;;;;;;2.72;1.98;;;;;;;12.53;39.22;92218.09;5010060;28;20497;-72
2023/03/27 09:26:35;;;;;;;5.30;2.35;;;;;;;11.78;46.51;92209.13;5007823;28;20425;-73
2023/03/27 09:29:19;;;;;;;2.67;2.33;;;;;;;11.90;45.00;92203.56;5008520;28;20041;-74
2023/03/27 09:31:47;;;;;;;4.10;2.15;;;;;;;11.80;46.60;92196.19;5005795;28;20052;-74
2023/03/27 09:34:22;;;;;;;2.20;1.90;;;;;;;12.08;42.64;92221.72;5008834;28;20063;-74
2023/03/27 09:36:48;;;;;;;4.63;2.00;;;;;;;11.75;41.47;92185.84;5010812;28;20452;-74
2023/03/27 09:39:20;;;;;;;5.50;2.28;;;;;;;11.68;44.61;92204.41;5008752;28;20050;-73
2023/03/27 09:41:57;;;;;;;2.55;1.95;;;;;;;11.57;43.05;92182.94;5009756;28;20431;-73
2023/03/27 09:44:26;;;;;;;2.85;2.25;;;;;;;11.56;45.28;92149.44;5009156;28;20416;-74
2023/03/27 09:47:15;;;;;;;3.22;2.00;;;;;;;12.12;42.18;92191.31;5010497;28;20026;-73
2023/03/27 09:50:10;;;;;;;3.95;2.40;;;;;;;11.81;43.35;92173.00;5019871;28;20698;-74
2023/03/27 09:52:38;;;;;;;2.15;1.77;;;;;;;11.62;44.34;92176.53;5009827;28;20405;-75
2023/03/27 09:55:22;;;;;;;3.22;2.17;;;;;;;11.77;45.27;92164.97;5008118;28;20115;-74
2023/03/27 09:57:48;;;;;;;4.97;2.40;;;;;;;12.09;44.06;92159.28;5010412;28;20084;-75
2023/03/27 10:00:33;;;;;;;5.40;2.63;;;;;;;12.27;44.17;92176.28;5008674;28;20975;-73
2023/03/27 10:03:06;;;;;;;3.63;2.40;;;;;;;12.04;41.02;92195.78;5009225;28;20061;-73
2023/03/27 10:05:33;;;;;;;2.78;1.80;;;;;;;12.13;41.54;92168.84;5008498;28;20562;-73
2023/03/27 10:08:00;;;;;;;5.35;2.30;;;;;;;12.22;44.23;92222.69;5016817;28;20062;-74
2023/03/27 10:10:30;;;;;;;4.38;2.67;;;;;;;12.25;44.78;92205.19;5007828;28;20037;-73
2023/03/27 10:12:59;;;;;;;6.25;3.55;;;;;;;11.84;44.52;92210.34;5012268;28;20495;-74
2023/03/27 10:15:25;;;;;;;6.55;3.20;;;;;;;11.48;45.58;92227.66;5009355;28;20052;-73
2023/03/27 10:17:51;;;;;;;6.70;3.35;;;;;;;11.52;47.31;92233.06;5010192;28;20474;-74
2023/03/27 10:20:19;;;;;;;6.28;3.38;;;;;;;11.05;46.23;92234.13;5009761;28;20029;-75
2023/03/27 10:23:08;;;;;;;12.73;2.80;;;;;;;11.49;44.69;92204.47;5008432;28;20034;-75
2023/03/27 10:25:44;;;;;;;4.55;2.58;;;;;;;11.11;45.98;92206.13;5010738;28;20496;-75
2023/03/27 10:28:22;;;;;;;7.82;2.65;;;;;;;11.53;47.08;92184.03;5007731;28;20037;-74
2023/03/27 10:31:02;;;;;;;4.70;2.70;;;;;;;11.79;46.23;92180.56;5010336;28;20021;-73
2023/03/27 10:33:30;;;;;;;5.82;4.32;;;;;;;10.79;45.77;92172.13;5008286;28;20037;-73
2023/03/27 10:35:56;;;;;;;4.30;3.28;;;;;;;11.25;47.66;92178.22;5009924;28;20033;-72
2023/03/27 10:38:22;;;;;;;3.60;3.05;;;;;;;10.86;46.34;92172.22;5005108;28;20512;-74
2023/03/27 10:40:50;;;;;;;4.40;2.95;;;;;;;10.73;48.28;92150.38;5011121;28;20454;-73
2023/03/27 10:43:36;;;;;;;19.13;3.30;;;;;;;11.27;48.05;92136.81;5009062;28;20026;-74
2023/03/27 10:46:09;;;;;;;3.08;2.38;;;;;;;11.22;45.34;92110.50;5007046;28;20598;-74
2023/03/27 10:48:45;;;;;;;4.93;2.88;;;;;;;10.95;46.50;92122.25;5010981;28;20531;-73
2023/03/27 10:51:51;;;;;;;10.07;3.35;;;;;;;10.84;46.01;92082.19;5008073;28;20073;-74
2023/03/27 10:54:35;;;;;;;4.35;2.90;;;;;;;11.12;46.94;92116.44;5005479;28;20053;-72
2023/03/27 10:57:02;;;;;;;2.97;2.17;;;;;;;11.49;45.75;92114.69;5010166;28;20084;-74
2023/03/27 10:59:56;;;;;;;7.88;3.42;;;;;;;11.46;46.29;92109.34;5008739;28;20041;-74
2023/03/27 11:02:31;;;;;;;8.98;3.17;;;;;;;11.09;47.44;92111.84;4997507;28;20596;-74
2023/03/27 11:05:01;;;;;;;11.80;3.92;;;;;;;11.45;46.69;92126.44;5011649;28;20037;-73
2023/03/27 11:07:43;;;;;;;11.02;4.25;;;;;;;10.97;46.63;92094.16;5007045;28;20120;-74
2023/03/27 11:10:32;;;;;;;8.35;4.63;;;;;;;10.93;47.07;92124.50;5008463;28;20136;-72
2023/03/27 11:13:03;;;;;;;7.45;5.43;;;;;;;10.80;47.52;92153.16;5009343;28;20029;-75
2023/03/27 11:15:45;;;;;;;9.15;4.70;;;;;;;11.00;48.63;92124.63;5007905;28;20137;-73
2023/03/27 11:18:17;;;;;;;7.47;3.85;;;;;;;11.09;49.72;92163.16;4994990;28;20049;-73
2023/03/27 11:20:51;;;;;;;6.97;4.28;;;;;;;11.00;50.57;92177.81;5001052;28;20048;-73
2023/03/27 11:23:32;;;;;;;4.70;3.30;;;;;;;10.69;53.03;92200.06;5004326;28;20474;-73
2023/03/27 11:26:00;;;;;;;11.98;4.40;;;;;;;10.22;57.33;92206.31;5011427;28;20034;-74
2023/03/27 11:28:51;;;;;;;7.75;3.33;;;;;;;10.29;58.86;92198.50;5004111;28;20072;-73
2023/03/27 11:31:47;;;;;;;4.85;3.30;;;;;;;9.60;62.26;92185.25;5014515;28;20033;-73
2023/03/27 11:34:28;;;;;;;3.92;2.47;;;;;;;10.53;56.64;92196.69;5006214;28;20435;-74
2023/03/27 11:37:00;;;;;;;3.08;2.70;;;;;;;10.59;55.19;92200.63;5004976;28;20026;-74
2023/03/27 11:39:41;;;;;;;3.83;2.70;;;;;;;10.94;55.88;92195.94;5006995;28;20095;-73
2023/03/27 11:42:14;;;;;;;2.35;1.92;;;;;;;11.28;49.90;92209.44;5001632;28;20864;-73
2023/03/27 11:44:40;;;;;;;3.92;2.42;;;;;;;11.14;51.92;92204.66;5000939;28;20037;-72
2023/03/27 11:47:28;;;;;;;2.47;2.28;;;;;;;11.30;52.16;92228.47;4999947;28;20046;-74
2023/03/27 11:50:00;;;;;;;4.72;2.97;;;;;;;11.15;54.32;92270.03;5002829;28;20152;-73
2023/03/27 11:52:57;;;;;;;6.30;3.65;;;;;;;11.20;53.02;92274.31;5001587;28;20041;-72